createdAt,value
2023-12-29T00:00:20.957Z,10.30
2023-12-29T00:00:42.088Z,10.31
2023-12-29T00:01:03.277Z,10.30
2023-12-29T00:01:24.461Z,10.30
2023-12-29T00:01:45.706Z,10.30
2023-12-29T00:02:06.797Z,10.29
2023-12-29T00:02:27.861Z,10.29
2023-12-29T00:02:48.979Z,10.29
2023-12-29T00:03:10.228Z,10.29
2023-12-29T00:03:31.375Z,10.28
2023-12-29T00:03:52.637Z,10.28
2023-12-29T00:04:13.892Z,10.27
2023-12-29T00:04:35.011Z,10.28
2023-12-29T00:04:56.134Z,10.28
2023-12-29T00:05:17.270Z,10.28
2023-12-29T00:05:38.440Z,10.27
2023-12-29T00:05:59.541Z,10.27
2023-12-29T00:06:20.592Z,10.27
2023-12-29T00:06:49.886Z,10.27
2023-12-29T00:07:08.663Z,10.27
2023-12-29T00:07:29.747Z,10.26
2023-12-29T00:07:50.934Z,10.26
2023-12-29T00:08:12.045Z,10.25
2023-12-29T00:08:33.090Z,10.26
2023-12-29T00:08:54.206Z,10.26
2023-12-29T00:09:15.362Z,10.25
2023-12-29T00:09:36.532Z,10.25
2023-12-29T00:09:57.674Z,10.26
2023-12-29T00:10:18.858Z,10.25
2023-12-29T00:10:40.077Z,10.25
2023-12-29T00:11:01.187Z,10.25
2023-12-29T00:11:22.282Z,10.25
2023-12-29T00:11:43.327Z,10.25
2023-12-29T00:12:04.394Z,10.24
2023-12-29T00:12:25.456Z,10.24
2023-12-29T00:12:46.539Z,10.24
2023-12-29T00:13:07.808Z,10.25
2023-12-29T00:13:28.891Z,10.24
2023-12-29T00:13:49.956Z,10.25
2023-12-29T00:14:11.039Z,10.25
2023-12-29T00:14:32.116Z,10.25
2023-12-29T00:14:53.227Z,10.25
2023-12-29T00:15:14.556Z,10.25
2023-12-29T00:15:35.701Z,10.26
2023-12-29T00:15:56.784Z,10.25
2023-12-29T00:16:17.836Z,10.25
2023-12-29T00:16:38.913Z,10.25
2023-12-29T00:16:59.983Z,10.25
2023-12-29T00:17:21.105Z,10.25
2023-12-29T00:17:42.955Z,10.25
2023-12-29T00:18:04.734Z,10.25
2023-12-29T00:18:26.043Z,10.25
2023-12-29T00:18:47.375Z,10.25
2023-12-29T00:19:08.665Z,10.25
2023-12-29T00:19:29.844Z,10.24
2023-12-29T00:19:51.004Z,10.25
2023-12-29T00:20:12.921Z,10.25
2023-12-29T00:20:41.235Z,10.25
2023-12-29T00:21:06.658Z,10.25
2023-12-29T00:21:28.120Z,10.25
2023-12-29T00:21:49.209Z,10.24
2023-12-29T00:22:10.378Z,10.23
2023-12-29T00:22:31.467Z,10.24
2023-12-29T00:22:52.580Z,10.24
2023-12-29T00:23:13.641Z,10.24
2023-12-29T00:23:34.704Z,10.24
2023-12-29T00:23:55.759Z,10.25
2023-12-29T00:24:16.834Z,10.24
2023-12-29T00:24:37.956Z,10.24
2023-12-29T00:24:59.094Z,10.25
2023-12-29T00:25:20.255Z,10.24
2023-12-29T00:25:41.357Z,10.24
2023-12-29T00:26:02.461Z,10.24
2023-12-29T00:26:23.531Z,10.24
2023-12-29T00:26:44.596Z,10.24
2023-12-29T00:27:05.658Z,10.24
2023-12-29T00:27:26.746Z,10.25
2023-12-29T00:27:47.825Z,10.24
2023-12-29T00:28:08.898Z,10.24
2023-12-29T00:28:29.971Z,10.24
2023-12-29T00:28:51.039Z,10.24
2023-12-29T00:29:12.097Z,10.24
2023-12-29T00:29:33.196Z,10.24
2023-12-29T00:29:54.230Z,10.24
2023-12-29T00:30:15.378Z,10.24
2023-12-29T00:30:47.926Z,10.24
2023-12-29T00:31:04.357Z,10.24
2023-12-29T00:31:26.781Z,10.24
2023-12-29T00:31:47.924Z,10.23
2023-12-29T00:32:09.144Z,10.23
2023-12-29T00:32:30.253Z,10.24
2023-12-29T00:32:51.371Z,10.23
2023-12-29T00:33:12.484Z,10.23
2023-12-29T00:33:33.791Z,10.23
2023-12-29T00:33:54.959Z,10.23
2023-12-29T00:34:16.128Z,10.23
2023-12-29T00:34:37.364Z,10.23
2023-12-29T00:34:58.492Z,10.23
2023-12-29T00:35:19.577Z,10.22
2023-12-29T00:35:40.632Z,10.22
2023-12-29T00:36:01.706Z,10.21
2023-12-29T00:36:22.840Z,10.22
2023-12-29T00:36:44.144Z,10.21
2023-12-29T00:37:05.228Z,10.21
2023-12-29T00:37:26.261Z,10.22
2023-12-29T00:37:47.341Z,10.21
2023-12-29T00:38:08.406Z,10.21
2023-12-29T00:38:29.686Z,10.21
2023-12-29T00:38:50.758Z,10.21
2023-12-29T00:39:11.820Z,10.20
2023-12-29T00:39:33.097Z,10.20
2023-12-29T00:39:54.250Z,10.20
2023-12-29T00:40:15.443Z,10.20
2023-12-29T00:40:36.557Z,10.19
2023-12-29T00:40:57.674Z,10.19
2023-12-29T00:41:18.731Z,10.19
2023-12-29T00:41:40.016Z,10.18
2023-12-29T00:42:01.297Z,10.19
2023-12-29T00:42:22.393Z,10.18
2023-12-29T00:42:43.484Z,10.18
2023-12-29T00:43:04.560Z,10.18
2023-12-29T00:43:25.697Z,10.18
2023-12-29T00:43:46.795Z,10.18
2023-12-29T00:44:07.851Z,10.18
2023-12-29T00:44:28.950Z,10.17
2023-12-29T00:44:50.004Z,10.17
2023-12-29T00:45:11.055Z,10.17
2023-12-29T00:45:32.151Z,10.18
2023-12-29T00:45:53.202Z,10.17
2023-12-29T00:46:14.400Z,10.16
2023-12-29T00:46:35.511Z,10.17
2023-12-29T00:46:56.627Z,10.16
2023-12-29T00:47:17.795Z,10.16
2023-12-29T00:47:38.898Z,10.16
2023-12-29T00:48:00.354Z,10.16
2023-12-29T00:48:21.652Z,10.16
2023-12-29T00:48:42.936Z,10.15
2023-12-29T00:49:04.322Z,10.16
2023-12-29T00:49:26.181Z,10.16
2023-12-29T00:49:47.341Z,10.16
2023-12-29T00:50:08.402Z,10.15
2023-12-29T00:50:29.720Z,10.17
2023-12-29T00:50:50.795Z,10.16
2023-12-29T00:51:11.863Z,10.16
2023-12-29T00:51:32.951Z,10.17
2023-12-29T00:51:54.043Z,10.16
2023-12-29T00:52:15.381Z,10.16
2023-12-29T00:52:36.486Z,10.16
2023-12-29T00:52:57.538Z,10.16
2023-12-29T00:53:18.594Z,10.16
2023-12-29T00:53:39.689Z,10.16
2023-12-29T00:54:00.781Z,10.16
2023-12-29T00:54:21.876Z,10.16
2023-12-29T00:54:43.036Z,10.16
2023-12-29T00:55:04.590Z,10.16
2023-12-29T00:55:25.787Z,10.15
2023-12-29T00:55:46.893Z,10.16
2023-12-29T00:56:07.961Z,10.16
2023-12-29T00:56:29.031Z,10.16
2023-12-29T00:56:50.111Z,10.15
2023-12-29T00:57:11.170Z,10.15
2023-12-29T00:57:32.468Z,10.14
2023-12-29T00:57:53.758Z,10.15
2023-12-29T00:58:14.880Z,10.15
2023-12-29T00:58:35.938Z,10.15
2023-12-29T00:58:56.993Z,10.14
2023-12-29T00:59:18.075Z,10.14
2023-12-29T00:59:39.127Z,10.13
2023-12-29T01:00:00.306Z,10.14
2023-12-29T01:00:21.358Z,10.14
2023-12-29T01:00:42.569Z,10.13
2023-12-29T01:01:03.691Z,10.12
2023-12-29T01:01:24.869Z,10.12
2023-12-29T01:01:46.273Z,10.11
2023-12-29T01:02:07.451Z,10.11
2023-12-29T01:02:28.525Z,10.11
2023-12-29T01:02:49.789Z,10.11
2023-12-29T01:03:10.900Z,10.11
2023-12-29T01:03:32.026Z,10.10
2023-12-29T01:03:53.137Z,10.10
2023-12-29T01:04:14.389Z,10.09
2023-12-29T01:04:35.726Z,10.09
2023-12-29T01:04:56.993Z,10.09
2023-12-29T01:05:18.143Z,10.09
2023-12-29T01:05:39.286Z,10.09
2023-12-29T01:06:00.357Z,10.08
2023-12-29T01:06:21.405Z,10.08
2023-12-29T01:06:42.511Z,10.08
2023-12-29T01:07:04.203Z,10.08
2023-12-29T01:07:25.258Z,10.08
2023-12-29T01:07:46.360Z,10.08
2023-12-29T01:08:07.632Z,10.07
2023-12-29T01:08:28.772Z,10.07
2023-12-29T01:08:49.842Z,10.07
2023-12-29T01:09:10.909Z,10.07
2023-12-29T01:09:32.022Z,10.07
2023-12-29T01:09:53.066Z,10.07
2023-12-29T01:10:14.284Z,10.07
2023-12-29T01:10:35.383Z,10.07
2023-12-29T01:10:56.467Z,10.06
2023-12-29T01:11:17.583Z,10.06
2023-12-29T01:11:38.621Z,10.06
2023-12-29T01:11:59.690Z,10.06
2023-12-29T01:12:20.770Z,10.05
2023-12-29T01:12:41.870Z,10.06
2023-12-29T01:13:02.974Z,10.06
2023-12-29T01:13:24.233Z,10.05
2023-12-29T01:13:45.504Z,10.05
2023-12-29T01:14:06.565Z,10.05
2023-12-29T01:14:27.636Z,10.05
2023-12-29T01:14:48.690Z,10.05
2023-12-29T01:15:09.826Z,10.04
2023-12-29T01:15:30.930Z,10.05
2023-12-29T01:15:52.127Z,10.05
2023-12-29T01:16:13.231Z,10.05
2023-12-29T01:16:34.360Z,10.05
2023-12-29T01:16:56.452Z,10.05
2023-12-29T01:17:18.365Z,10.05
2023-12-29T01:17:39.435Z,10.04
2023-12-29T01:18:00.879Z,10.04
2023-12-29T01:18:22.467Z,10.05
2023-12-29T01:18:43.816Z,10.05
2023-12-29T01:19:05.319Z,10.04
2023-12-29T01:19:26.512Z,10.04
2023-12-29T01:19:47.786Z,10.04
2023-12-29T01:20:08.969Z,10.04
2023-12-29T01:20:30.045Z,10.04
2023-12-29T01:20:51.123Z,10.04
2023-12-29T01:21:12.202Z,10.05
2023-12-29T01:21:33.282Z,10.04
2023-12-29T01:21:54.414Z,10.04
2023-12-29T01:22:15.675Z,10.04
2023-12-29T01:22:36.728Z,10.03
2023-12-29T01:22:57.800Z,10.03
2023-12-29T01:23:18.880Z,10.04
2023-12-29T01:23:39.956Z,10.03
2023-12-29T01:24:01.063Z,10.04
2023-12-29T01:24:26.812Z,10.04
2023-12-29T01:24:49.342Z,10.04
2023-12-29T01:25:10.473Z,10.03
2023-12-29T01:25:31.705Z,10.03
2023-12-29T01:25:52.809Z,10.03
2023-12-29T01:26:13.875Z,10.03
2023-12-29T01:26:34.935Z,10.03
2023-12-29T01:26:56.036Z,10.02
2023-12-29T01:27:17.127Z,10.03
2023-12-29T01:27:38.236Z,10.03
2023-12-29T01:27:59.347Z,10.03
2023-12-29T01:28:20.466Z,10.03
2023-12-29T01:28:41.784Z,10.03
2023-12-29T01:29:02.989Z,10.03
2023-12-29T01:29:24.256Z,10.03
2023-12-29T01:29:45.395Z,10.03
2023-12-29T01:30:06.457Z,10.03
2023-12-29T01:30:27.870Z,10.03
2023-12-29T01:30:48.977Z,10.03
2023-12-29T01:31:10.154Z,10.03
2023-12-29T01:31:31.470Z,10.05
2023-12-29T01:31:52.628Z,10.03
2023-12-29T01:32:13.697Z,10.04
2023-12-29T01:32:34.789Z,10.04
2023-12-29T01:32:55.860Z,10.04
2023-12-29T01:33:17.008Z,10.03
2023-12-29T01:33:38.109Z,10.03
2023-12-29T01:33:59.319Z,10.03
2023-12-29T01:34:20.520Z,10.04
2023-12-29T01:34:41.982Z,10.04
2023-12-29T01:35:03.160Z,10.05
2023-12-29T01:35:24.204Z,10.04
2023-12-29T01:35:45.269Z,10.05
2023-12-29T01:36:11.470Z,10.05
2023-12-29T01:36:33.374Z,10.05
2023-12-29T01:36:54.507Z,10.05
2023-12-29T01:37:15.626Z,10.06
2023-12-29T01:37:36.843Z,10.05
2023-12-29T01:37:58.345Z,10.05
2023-12-29T01:38:19.567Z,10.05
2023-12-29T01:38:40.644Z,10.05
2023-12-29T01:39:01.693Z,10.06
2023-12-29T01:39:22.963Z,10.06
2023-12-29T01:39:44.051Z,10.06
2023-12-29T01:40:05.296Z,10.06
2023-12-29T01:40:26.381Z,10.06
2023-12-29T01:40:47.418Z,10.07
2023-12-29T01:41:08.502Z,10.07
2023-12-29T01:41:29.567Z,10.07
2023-12-29T01:41:50.641Z,10.07
2023-12-29T01:42:11.711Z,10.08
2023-12-29T01:42:32.811Z,10.07
2023-12-29T01:42:53.922Z,10.08
2023-12-29T01:43:15.109Z,10.08
2023-12-29T01:43:36.183Z,10.07
2023-12-29T01:43:57.289Z,10.08
2023-12-29T01:44:18.358Z,10.08
2023-12-29T01:44:39.599Z,10.08
2023-12-29T01:45:00.839Z,10.07
2023-12-29T01:45:21.978Z,10.08
2023-12-29T01:45:52.003Z,10.08
2023-12-29T01:46:10.045Z,10.09
2023-12-29T01:46:31.152Z,10.08
2023-12-29T01:46:52.202Z,10.08
2023-12-29T01:47:13.265Z,10.08
2023-12-29T01:47:34.338Z,10.08
2023-12-29T01:47:55.501Z,10.08
2023-12-29T01:48:16.658Z,10.09
2023-12-29T01:48:37.844Z,10.08
2023-12-29T01:48:59.029Z,10.08
2023-12-29T01:49:20.200Z,10.08
2023-12-29T01:49:41.385Z,10.08
2023-12-29T01:50:02.749Z,10.08
2023-12-29T01:50:23.855Z,10.07
2023-12-29T01:50:44.965Z,10.08
2023-12-29T01:51:06.156Z,10.08
2023-12-29T01:51:27.463Z,10.09
2023-12-29T01:51:48.569Z,10.08
2023-12-29T01:52:09.824Z,10.08
2023-12-29T01:52:30.962Z,10.08
2023-12-29T01:52:52.082Z,10.08
2023-12-29T01:53:13.113Z,10.08
2023-12-29T01:53:39.658Z,10.09
2023-12-29T01:54:01.139Z,10.10
2023-12-29T01:54:22.232Z,10.09
2023-12-29T01:54:43.375Z,10.08
2023-12-29T01:55:04.978Z,10.08
2023-12-29T01:55:26.023Z,10.08
2023-12-29T01:55:47.087Z,10.09
2023-12-29T01:56:08.170Z,10.08
2023-12-29T01:56:29.236Z,10.08
2023-12-29T01:56:50.297Z,10.09
2023-12-29T01:57:11.361Z,10.10
2023-12-29T01:57:32.454Z,10.09
2023-12-29T01:57:53.512Z,10.10
2023-12-29T01:58:14.608Z,10.09
2023-12-29T01:58:35.710Z,10.09
2023-12-29T01:59:00.361Z,10.09
2023-12-29T01:59:26.275Z,10.10
2023-12-29T01:59:47.966Z,10.11
2023-12-29T02:00:09.082Z,10.10
2023-12-29T02:00:30.391Z,10.10
2023-12-29T02:00:51.575Z,10.11
2023-12-29T02:01:12.908Z,10.10
2023-12-29T02:01:34.148Z,10.11
2023-12-29T02:01:55.274Z,10.11
2023-12-29T02:02:16.376Z,10.11
2023-12-29T02:02:37.446Z,10.11
2023-12-29T02:02:58.518Z,10.12
2023-12-29T02:03:19.601Z,10.12
2023-12-29T02:03:40.778Z,10.12
2023-12-29T02:04:01.909Z,10.12
2023-12-29T02:04:23.086Z,10.13
2023-12-29T02:04:44.342Z,10.13
2023-12-29T02:05:05.595Z,10.13
2023-12-29T02:05:26.751Z,10.13
2023-12-29T02:05:47.897Z,10.14
2023-12-29T02:06:08.993Z,10.14
2023-12-29T02:06:30.078Z,10.14
2023-12-29T02:06:51.196Z,10.15
2023-12-29T02:07:12.391Z,10.15
2023-12-29T02:07:33.467Z,10.15
2023-12-29T02:07:54.698Z,10.15
2023-12-29T02:08:15.777Z,10.15
2023-12-29T02:08:36.833Z,10.16
2023-12-29T02:08:57.899Z,10.15
2023-12-29T02:09:18.965Z,10.16
2023-12-29T02:09:40.072Z,10.17
2023-12-29T02:10:01.226Z,10.16
2023-12-29T02:10:22.360Z,10.17
2023-12-29T02:10:43.577Z,10.18
2023-12-29T02:11:04.631Z,10.18
2023-12-29T02:11:25.684Z,10.17
2023-12-29T02:11:46.762Z,10.17
2023-12-29T02:12:07.811Z,10.18
2023-12-29T02:12:28.913Z,10.19
2023-12-29T02:12:50.013Z,10.19
2023-12-29T02:13:11.110Z,10.19
2023-12-29T02:13:32.145Z,10.20
2023-12-29T02:13:53.211Z,10.20
2023-12-29T02:14:14.273Z,10.19
2023-12-29T02:14:35.335Z,10.19
2023-12-29T02:14:56.413Z,10.21
2023-12-29T02:15:17.481Z,10.20
2023-12-29T02:15:38.617Z,10.20
2023-12-29T02:15:59.792Z,10.20
2023-12-29T02:16:20.909Z,10.21
2023-12-29T02:16:41.974Z,10.21
2023-12-29T02:17:03.055Z,10.22
2023-12-29T02:17:24.181Z,10.22
2023-12-29T02:17:45.413Z,10.22
2023-12-29T02:18:06.776Z,10.22
2023-12-29T02:18:28.151Z,10.22
2023-12-29T02:18:49.277Z,10.22
2023-12-29T02:19:10.396Z,10.22
2023-12-29T02:19:31.540Z,10.23
2023-12-29T02:19:52.716Z,10.23
2023-12-29T02:20:13.785Z,10.23
2023-12-29T02:20:34.903Z,10.24
2023-12-29T02:20:56.131Z,10.24
2023-12-29T02:21:17.231Z,10.24
2023-12-29T02:21:38.363Z,10.24
2023-12-29T02:21:59.450Z,10.24
2023-12-29T02:22:20.722Z,10.25
2023-12-29T02:22:41.809Z,10.25
2023-12-29T02:23:02.893Z,10.24
2023-12-29T02:23:23.933Z,10.25
2023-12-29T02:23:45.005Z,10.25
2023-12-29T02:24:06.080Z,10.25
2023-12-29T02:24:27.451Z,10.26
2023-12-29T02:24:48.724Z,10.25
2023-12-29T02:25:10.138Z,10.26
2023-12-29T02:25:31.248Z,10.26
2023-12-29T02:25:52.301Z,10.27
2023-12-29T02:26:13.575Z,10.27
2023-12-29T02:26:34.847Z,10.27
2023-12-29T02:26:55.920Z,10.27
2023-12-29T02:27:17.047Z,10.27
2023-12-29T02:27:38.093Z,10.27
2023-12-29T02:27:59.474Z,10.28
2023-12-29T02:28:20.754Z,10.27
2023-12-29T02:28:41.845Z,10.28
2023-12-29T02:29:02.907Z,10.28
2023-12-29T02:29:24.097Z,10.29
2023-12-29T02:29:45.180Z,10.29
2023-12-29T02:30:06.324Z,10.29
2023-12-29T02:30:27.580Z,10.29
2023-12-29T02:30:48.776Z,10.29
2023-12-29T02:31:10.006Z,10.29
2023-12-29T02:31:31.241Z,10.30
2023-12-29T02:31:52.539Z,10.30
2023-12-29T02:32:13.605Z,10.31
2023-12-29T02:32:34.715Z,10.31
2023-12-29T02:32:55.988Z,10.31
2023-12-29T02:33:17.283Z,10.31
2023-12-29T02:33:38.462Z,10.31
2023-12-29T02:33:59.780Z,10.31
2023-12-29T02:34:21.033Z,10.32
2023-12-29T02:34:42.409Z,10.31
2023-12-29T02:35:04.168Z,10.31
2023-12-29T02:35:25.324Z,10.32
2023-12-29T02:35:46.381Z,10.31
2023-12-29T02:36:07.487Z,10.32
2023-12-29T02:36:28.535Z,10.32
2023-12-29T02:36:49.834Z,10.32
2023-12-29T02:37:11.023Z,10.32
2023-12-29T02:37:32.077Z,10.32
2023-12-29T02:37:53.142Z,10.33
2023-12-29T02:38:14.226Z,10.33
2023-12-29T02:38:35.286Z,10.32
2023-12-29T02:38:56.368Z,10.32
2023-12-29T02:39:17.423Z,10.32
2023-12-29T02:39:38.583Z,10.32
2023-12-29T02:39:59.706Z,10.33
2023-12-29T02:40:20.821Z,10.33
2023-12-29T02:40:41.889Z,10.32
2023-12-29T02:41:03.459Z,10.32
2023-12-29T02:41:24.527Z,10.33
2023-12-29T02:41:45.645Z,10.33
2023-12-29T02:42:06.918Z,10.33
2023-12-29T02:42:28.082Z,10.33
2023-12-29T02:42:49.222Z,10.33
2023-12-29T02:43:10.459Z,10.33
2023-12-29T02:43:31.540Z,10.33
2023-12-29T02:43:52.616Z,10.33
2023-12-29T02:44:13.673Z,10.33
2023-12-29T02:44:34.738Z,10.34
2023-12-29T02:44:55.799Z,10.33
2023-12-29T02:45:16.883Z,10.33
2023-12-29T02:45:38.037Z,10.34
2023-12-29T02:45:59.093Z,10.34
2023-12-29T02:46:20.234Z,10.34
2023-12-29T02:46:41.327Z,10.34
2023-12-29T02:47:02.388Z,10.34
2023-12-29T02:47:23.514Z,10.34
2023-12-29T02:47:44.819Z,10.34
2023-12-29T02:48:06.552Z,10.34
2023-12-29T02:48:27.974Z,10.34
2023-12-29T02:48:49.280Z,10.34
2023-12-29T02:49:10.485Z,10.34
2023-12-29T02:49:31.620Z,10.34
2023-12-29T02:49:52.774Z,10.35
2023-12-29T02:50:13.871Z,10.35
2023-12-29T02:50:34.977Z,10.35
2023-12-29T02:50:56.046Z,10.35
2023-12-29T02:51:17.112Z,10.35
2023-12-29T02:51:38.209Z,10.36
2023-12-29T02:51:59.402Z,10.35
2023-12-29T02:52:20.517Z,10.36
2023-12-29T02:52:41.758Z,10.35
2023-12-29T02:53:03.035Z,10.35
2023-12-29T02:53:24.085Z,10.36
2023-12-29T02:53:45.202Z,10.36
2023-12-29T02:54:06.265Z,10.36
2023-12-29T02:54:27.336Z,10.36
2023-12-29T02:54:48.448Z,10.36
2023-12-29T02:55:09.579Z,10.36
2023-12-29T02:55:30.685Z,10.37
2023-12-29T02:55:51.741Z,10.37
2023-12-29T02:56:12.817Z,10.37
2023-12-29T02:56:33.883Z,10.37
2023-12-29T02:56:54.951Z,10.37
2023-12-29T02:57:16.028Z,10.37
2023-12-29T02:57:37.098Z,10.37
2023-12-29T02:57:58.739Z,10.37
2023-12-29T02:58:20.097Z,10.38
2023-12-29T02:58:41.405Z,10.37
2023-12-29T02:59:02.439Z,10.37
2023-12-29T02:59:23.508Z,10.38
2023-12-29T02:59:44.569Z,10.38
2023-12-29T03:00:06.114Z,10.38
2023-12-29T03:00:27.395Z,10.39
2023-12-29T03:00:48.551Z,10.39
2023-12-29T03:01:09.731Z,10.38
2023-12-29T03:01:30.938Z,10.39
2023-12-29T03:01:52.199Z,10.39
2023-12-29T03:02:13.354Z,10.38
2023-12-29T03:02:34.424Z,10.39
2023-12-29T03:02:55.522Z,10.39
2023-12-29T03:03:16.645Z,10.39
2023-12-29T03:03:37.879Z,10.39
2023-12-29T03:03:59.018Z,10.39
2023-12-29T03:04:20.146Z,10.39
2023-12-29T03:04:41.171Z,10.38
2023-12-29T03:05:02.277Z,10.39
2023-12-29T03:05:23.405Z,10.38
2023-12-29T03:05:44.471Z,10.38
2023-12-29T03:06:05.560Z,10.38
2023-12-29T03:06:26.595Z,10.38
2023-12-29T03:06:47.729Z,10.38
2023-12-29T03:07:08.908Z,10.37
2023-12-29T03:07:30.051Z,10.38
2023-12-29T03:07:51.115Z,10.37
2023-12-29T03:08:12.181Z,10.37
2023-12-29T03:08:33.457Z,10.37
2023-12-29T03:08:54.567Z,10.37
2023-12-29T03:09:15.664Z,10.36
2023-12-29T03:09:36.739Z,10.36
2023-12-29T03:09:57.811Z,10.36
2023-12-29T03:10:18.962Z,10.35
2023-12-29T03:10:40.046Z,10.36
2023-12-29T03:11:01.101Z,10.35
2023-12-29T03:11:22.180Z,10.35
2023-12-29T03:11:43.249Z,10.35
2023-12-29T03:12:04.335Z,10.35
2023-12-29T03:12:25.392Z,10.35
2023-12-29T03:12:46.536Z,10.34
2023-12-29T03:13:07.647Z,10.34
2023-12-29T03:13:29.499Z,10.33
2023-12-29T03:13:50.785Z,10.33
2023-12-29T03:14:12.065Z,10.33
2023-12-29T03:14:33.112Z,10.33
2023-12-29T03:14:54.183Z,10.32
2023-12-29T03:15:15.243Z,10.32
2023-12-29T03:15:36.337Z,10.32
2023-12-29T03:15:57.442Z,10.31
2023-12-29T03:16:18.566Z,10.31
2023-12-29T03:16:39.618Z,10.31
2023-12-29T03:17:00.689Z,10.31
2023-12-29T03:17:21.763Z,10.30
2023-12-29T03:17:42.861Z,10.30
2023-12-29T03:18:04.283Z,10.29
2023-12-29T03:18:25.656Z,10.30
2023-12-29T03:18:46.900Z,10.29
2023-12-29T03:19:08.303Z,10.28
2023-12-29T03:19:29.904Z,10.30
2023-12-29T03:19:51.047Z,10.28
2023-12-29T03:20:12.143Z,10.28
2023-12-29T03:20:33.210Z,10.28
2023-12-29T03:20:54.262Z,10.28
2023-12-29T03:21:15.336Z,10.27
2023-12-29T03:21:36.475Z,10.27
2023-12-29T03:21:57.562Z,10.27
2023-12-29T03:22:18.671Z,10.27
2023-12-29T03:22:39.726Z,10.26
2023-12-29T03:23:00.770Z,10.26
2023-12-29T03:23:21.871Z,10.26
2023-12-29T03:23:42.932Z,10.25
2023-12-29T03:24:04.013Z,10.24
2023-12-29T03:24:25.126Z,10.24
2023-12-29T03:24:46.274Z,10.24
2023-12-29T03:25:07.498Z,10.24
2023-12-29T03:25:28.600Z,10.23
2023-12-29T03:25:49.664Z,10.23
2023-12-29T03:26:10.744Z,10.23
2023-12-29T03:26:31.848Z,10.23
2023-12-29T03:26:52.943Z,10.22
2023-12-29T03:27:13.976Z,10.22
2023-12-29T03:27:35.106Z,10.22
2023-12-29T03:27:56.206Z,10.21
2023-12-29T03:28:17.330Z,10.21
2023-12-29T03:28:38.370Z,10.21
2023-12-29T03:28:59.452Z,10.21
2023-12-29T03:29:20.558Z,10.21
2023-12-29T03:29:41.868Z,10.21
2023-12-29T03:30:03.217Z,10.19
2023-12-29T03:30:24.435Z,10.20
2023-12-29T03:30:45.599Z,10.19
2023-12-29T03:31:07.188Z,10.19
2023-12-29T03:31:28.522Z,10.19
2023-12-29T03:31:49.672Z,10.19
2023-12-29T03:32:10.740Z,10.18
2023-12-29T03:32:31.841Z,10.19
2023-12-29T03:32:52.933Z,10.19
2023-12-29T03:33:14.085Z,10.18
2023-12-29T03:33:35.292Z,10.19
2023-12-29T03:33:56.599Z,10.18
2023-12-29T03:34:17.932Z,10.18
2023-12-29T03:34:39.241Z,10.18
2023-12-29T03:35:00.675Z,10.18
2023-12-29T03:35:21.973Z,10.18
2023-12-29T03:35:43.034Z,10.17
2023-12-29T03:36:04.491Z,10.17
2023-12-29T03:36:25.567Z,10.17
2023-12-29T03:36:46.631Z,10.17
2023-12-29T03:37:07.759Z,10.16
2023-12-29T03:37:28.790Z,10.16
2023-12-29T03:37:49.876Z,10.15
2023-12-29T03:38:10.924Z,10.16
2023-12-29T03:38:31.996Z,10.16
2023-12-29T03:38:53.079Z,10.15
2023-12-29T03:39:14.157Z,10.15
2023-12-29T03:39:35.253Z,10.15
2023-12-29T03:39:56.438Z,10.15
2023-12-29T03:40:17.765Z,10.14
2023-12-29T03:40:39.131Z,10.13
2023-12-29T03:41:00.195Z,10.14
2023-12-29T03:41:21.268Z,10.13
2023-12-29T03:41:42.349Z,10.13
2023-12-29T03:42:03.697Z,10.14
2023-12-29T03:42:24.759Z,10.13
2023-12-29T03:42:45.884Z,10.12
2023-12-29T03:43:07.108Z,10.12
2023-12-29T03:43:29.030Z,10.11
2023-12-29T03:43:50.098Z,10.11
2023-12-29T03:44:11.152Z,10.11
2023-12-29T03:44:32.217Z,10.11
2023-12-29T03:44:53.272Z,10.11
2023-12-29T03:45:14.350Z,10.10
2023-12-29T03:45:35.524Z,10.11
2023-12-29T03:45:56.672Z,10.11
2023-12-29T03:46:17.775Z,10.11
2023-12-29T03:46:38.821Z,10.10
2023-12-29T03:46:59.889Z,10.10
2023-12-29T03:47:20.959Z,10.10
2023-12-29T03:47:42.130Z,10.09
2023-12-29T03:48:04.305Z,10.10
2023-12-29T03:48:25.684Z,10.10
2023-12-29T03:48:46.950Z,10.10
2023-12-29T03:49:08.214Z,10.10
2023-12-29T03:49:29.437Z,10.10
2023-12-29T03:49:50.610Z,10.10
2023-12-29T03:50:11.696Z,10.09
2023-12-29T03:50:32.767Z,10.09
2023-12-29T03:50:53.967Z,10.10
2023-12-29T03:51:15.202Z,10.10
2023-12-29T03:51:36.314Z,10.10
2023-12-29T03:51:57.471Z,10.10
2023-12-29T03:52:18.555Z,10.10
2023-12-29T03:52:39.693Z,10.09
2023-12-29T03:53:00.750Z,10.09
2023-12-29T03:53:21.825Z,10.08
2023-12-29T03:53:42.892Z,10.08
2023-12-29T03:54:03.956Z,10.08
2023-12-29T03:54:25.029Z,10.08
2023-12-29T03:54:46.139Z,10.07
2023-12-29T03:55:07.282Z,10.08
2023-12-29T03:55:28.357Z,10.08
2023-12-29T03:55:49.414Z,10.07
2023-12-29T03:56:10.509Z,10.08
2023-12-29T03:56:31.620Z,10.08
2023-12-29T03:56:52.685Z,10.07
2023-12-29T03:57:13.771Z,10.07
2023-12-29T03:57:34.838Z,10.08
2023-12-29T03:57:55.924Z,10.08
2023-12-29T03:58:16.989Z,10.08
2023-12-29T03:58:38.112Z,10.08
2023-12-29T03:58:59.181Z,10.08
2023-12-29T03:59:20.245Z,10.08
2023-12-29T03:59:41.324Z,10.08
2023-12-29T04:00:02.397Z,10.07
2023-12-29T04:00:23.481Z,10.07
2023-12-29T04:00:44.615Z,10.07
2023-12-29T04:01:05.794Z,10.06
2023-12-29T04:01:27.934Z,10.06
2023-12-29T04:01:49.772Z,10.07
2023-12-29T04:02:10.868Z,10.06
2023-12-29T04:02:31.958Z,10.07
2023-12-29T04:02:53.008Z,10.06
2023-12-29T04:03:14.103Z,10.07
2023-12-29T04:03:35.178Z,10.06
2023-12-29T04:03:56.336Z,10.06
2023-12-29T04:04:17.437Z,10.06
2023-12-29T04:04:38.656Z,10.05
2023-12-29T04:04:59.884Z,10.04
2023-12-29T04:05:21.004Z,10.05
2023-12-29T04:05:42.076Z,10.05
2023-12-29T04:06:03.121Z,10.05
2023-12-29T04:06:24.190Z,10.04
2023-12-29T04:06:45.358Z,10.03
2023-12-29T04:07:27.732Z,10.03
2023-12-29T04:07:48.788Z,10.03
2023-12-29T04:08:09.862Z,10.03
2023-12-29T04:08:30.930Z,10.02
2023-12-29T04:08:52.002Z,10.02
2023-12-29T04:09:13.048Z,10.02
2023-12-29T04:09:34.220Z,10.01
2023-12-29T04:09:55.395Z,10.01
2023-12-29T04:10:16.446Z,10.00
2023-12-29T04:10:37.518Z,10.01
2023-12-29T04:10:58.573Z,10.00
2023-12-29T04:11:19.683Z,10.00
2023-12-29T04:11:40.757Z,10.00
2023-12-29T04:12:02.039Z,10.00
2023-12-29T04:12:23.301Z,9.99
2023-12-29T04:12:44.389Z,9.99
2023-12-29T04:13:05.500Z,9.99
2023-12-29T04:13:26.540Z,9.98
2023-12-29T04:13:47.594Z,9.99
2023-12-29T04:14:08.655Z,9.98
2023-12-29T04:14:29.740Z,9.99
2023-12-29T04:14:50.773Z,9.98
2023-12-29T04:15:11.835Z,9.97
2023-12-29T04:15:32.929Z,9.97
2023-12-29T04:15:54.050Z,9.97
2023-12-29T04:16:15.079Z,9.97
2023-12-29T04:16:36.143Z,9.97
2023-12-29T04:16:57.197Z,9.96
2023-12-29T04:17:18.484Z,9.96
2023-12-29T04:17:39.751Z,9.96
2023-12-29T04:18:01.291Z,9.97
2023-12-29T04:18:22.678Z,9.96
2023-12-29T04:18:43.905Z,9.96
2023-12-29T04:19:05.052Z,9.96
2023-12-29T04:19:26.152Z,9.96
2023-12-29T04:19:47.216Z,9.96
2023-12-29T04:20:08.285Z,9.95
2023-12-29T04:20:29.343Z,9.95
2023-12-29T04:20:50.393Z,9.95
2023-12-29T04:21:11.481Z,9.95
2023-12-29T04:21:32.580Z,9.96
2023-12-29T04:21:53.724Z,9.95
2023-12-29T04:22:14.761Z,9.94
2023-12-29T04:22:35.865Z,9.95
2023-12-29T04:22:57.141Z,9.95
2023-12-29T04:23:18.212Z,9.95
2023-12-29T04:23:39.273Z,9.94
2023-12-29T04:24:00.345Z,9.94
2023-12-29T04:24:21.416Z,9.94
2023-12-29T04:24:42.595Z,9.95
2023-12-29T04:25:03.664Z,9.94
2023-12-29T04:25:24.718Z,9.94
2023-12-29T04:25:45.782Z,9.94
2023-12-29T04:26:06.862Z,9.94
2023-12-29T04:26:28.305Z,9.94
2023-12-29T04:26:49.346Z,9.94
2023-12-29T04:27:10.425Z,9.94
2023-12-29T04:27:31.503Z,9.93
2023-12-29T04:27:52.804Z,9.94
2023-12-29T04:28:13.988Z,9.93
2023-12-29T04:28:35.054Z,9.93
2023-12-29T04:28:56.120Z,9.94
2023-12-29T04:29:17.196Z,9.93
2023-12-29T04:29:38.254Z,9.92
2023-12-29T04:29:59.315Z,9.93
2023-12-29T04:30:20.407Z,9.92
2023-12-29T04:30:41.504Z,9.92
2023-12-29T04:31:02.643Z,9.92
2023-12-29T04:31:23.819Z,9.92
2023-12-29T04:31:44.877Z,9.91
2023-12-29T04:32:05.931Z,9.92
2023-12-29T04:32:27.020Z,9.92
2023-12-29T04:32:48.072Z,9.92
2023-12-29T04:33:09.341Z,9.90
2023-12-29T04:33:30.621Z,9.91
2023-12-29T04:33:51.741Z,9.90
2023-12-29T04:34:12.845Z,9.90
2023-12-29T04:34:34.032Z,9.90